createdAt,value
2022-08-03T00:02:19.723Z,17.25
2022-08-03T00:04:48.083Z,17.00
2022-08-03T00:07:15.921Z,14.00
2022-08-03T00:09:43.688Z,14.50
2022-08-03T00:12:11.790Z,11.33
2022-08-03T00:14:39.624Z,17.25
2022-08-03T00:17:07.519Z,16.00
2022-08-03T00:19:35.489Z,14.50
2022-08-03T00:22:03.233Z,12.50
2022-08-03T00:24:31.470Z,15.00
2022-08-03T00:26:59.513Z,15.33
2022-08-03T00:29:27.468Z,15.50
2022-08-03T00:31:59.522Z,15.00
2022-08-03T00:34:36.572Z,12.67
2022-08-03T00:37:16.556Z,14.25
2022-08-03T00:39:46.487Z,11.75
2022-08-03T00:42:14.742Z,14.00
2022-08-03T00:44:44.510Z,13.25
2022-08-03T00:47:13.262Z,15.75
2022-08-03T00:49:42.244Z,15.50
2022-08-03T00:52:11.016Z,10.75
2022-08-03T00:54:39.431Z,10.75
2022-08-03T00:57:08.311Z,15.00
2022-08-03T00:59:38.270Z,16.67
2022-08-03T01:02:06.773Z,10.75
2022-08-03T01:04:34.494Z,12.25
2022-08-03T01:07:14.806Z,14.00
2022-08-03T01:09:58.260Z,15.50
2022-08-03T01:12:49.484Z,21.00
2022-08-03T01:15:28.949Z,17.00
2022-08-03T01:18:00.811Z,17.50
2022-08-03T01:20:33.877Z,17.00
2022-08-03T01:23:38.699Z,17.25
2022-08-03T01:26:13.048Z,16.00
2022-08-03T01:29:18.573Z,17.25
2022-08-03T01:32:58.801Z,15.25
2022-08-03T01:34:47.845Z,15.75
2022-08-03T01:37:22.269Z,15.00
2022-08-03T01:39:53.762Z,17.75
2022-08-03T01:42:25.165Z,15.25
2022-08-03T01:44:53.542Z,15.00
2022-08-03T01:47:22.851Z,12.50
2022-08-03T01:49:52.439Z,16.25
2022-08-03T01:52:22.002Z,17.00
2022-08-03T01:54:51.651Z,15.00
2022-08-03T01:57:20.305Z,13.50
2022-08-03T01:59:49.991Z,14.25
2022-08-03T02:02:32.779Z,14.00
2022-08-03T02:05:04.869Z,13.00
2022-08-03T02:07:34.398Z,15.75
2022-08-03T02:10:05.969Z,18.50
2022-08-03T02:12:35.464Z,16.67
2022-08-03T02:15:03.553Z,16.00
2022-08-03T02:17:39.020Z,14.00
2022-08-03T02:20:11.764Z,15.75
2022-08-03T02:22:41.091Z,15.50
2022-08-03T02:25:11.074Z,16.00
2022-08-03T02:27:44.169Z,14.25
2022-08-03T02:30:14.475Z,17.00
2022-08-03T02:32:44.500Z,17.00
2022-08-03T02:35:13.992Z,16.25
2022-08-03T02:37:45.109Z,17.50
2022-08-03T02:40:19.792Z,15.00
2022-08-03T02:42:50.435Z,13.67
2022-08-03T02:45:18.792Z,16.25
2022-08-03T02:47:53.306Z,16.00
2022-08-03T02:50:23.962Z,14.50
2022-08-03T02:52:53.392Z,17.00
2022-08-03T02:55:22.981Z,15.00
2022-08-03T02:57:51.848Z,15.25
2022-08-03T03:00:28.090Z,15.75
2022-08-03T03:02:58.729Z,13.50
2022-08-03T03:05:51.619Z,17.25
2022-08-03T03:08:26.127Z,15.25
2022-08-03T03:10:58.588Z,17.25
2022-08-03T03:13:28.929Z,13.75
2022-08-03T03:15:57.926Z,17.25
2022-08-03T03:18:28.844Z,17.25
2022-08-03T03:20:56.891Z,18.50
2022-08-03T03:23:25.399Z,17.75
2022-08-03T03:25:53.773Z,17.00
2022-08-03T03:28:22.871Z,15.00
2022-08-03T03:30:53.465Z,19.50
2022-08-03T03:33:22.605Z,15.75
2022-08-03T03:35:51.957Z,16.33
2022-08-03T03:38:20.434Z,16.33
2022-08-03T03:40:48.660Z,15.25
2022-08-03T03:43:18.651Z,18.67
2022-08-03T03:45:48.133Z,21.25
2022-08-03T03:48:16.248Z,21.25
2022-08-03T03:50:44.467Z,20.25
2022-08-03T03:53:13.563Z,18.00
2022-08-03T03:55:59.421Z,17.50
2022-08-03T03:58:31.277Z,16.75
2022-08-03T04:00:59.781Z,18.75
2022-08-03T04:03:27.842Z,18.50
2022-08-03T04:06:14.226Z,17.50
2022-08-03T04:09:00.376Z,14.75
2022-08-03T04:11:33.342Z,14.75
2022-08-03T04:14:07.058Z,16.75
2022-08-03T04:16:43.137Z,17.00
2022-08-03T04:19:19.786Z,16.67
2022-08-03T04:21:53.435Z,17.75
2022-08-03T04:24:30.144Z,19.00
2022-08-03T04:26:59.511Z,19.75
2022-08-03T04:29:29.544Z,16.75
2022-08-03T04:31:59.051Z,13.50
2022-08-03T04:34:27.774Z,17.50
2022-08-03T04:37:00.126Z,17.50
2022-08-03T04:39:31.104Z,19.00
2022-08-03T04:42:16.933Z,16.00
2022-08-03T04:44:46.442Z,13.50
2022-08-03T04:47:14.410Z,17.00
2022-08-03T04:49:42.892Z,17.25
2022-08-03T04:52:11.352Z,15.75
2022-08-03T04:54:42.463Z,17.50
2022-08-03T04:57:22.411Z,20.25
2022-08-03T05:00:01.336Z,28.25
2022-08-03T05:02:31.341Z,25.25
2022-08-03T05:04:59.713Z,25.50
2022-08-03T05:07:35.926Z,27.33
2022-08-03T05:10:11.715Z,35.00
2022-08-03T05:12:43.762Z,25.75
2022-08-03T05:15:12.127Z,29.50
2022-08-03T05:17:40.110Z,25.75
2022-08-03T05:20:08.959Z,24.25
2022-08-03T05:22:36.711Z,22.75
2022-08-03T05:25:05.330Z,29.00
2022-08-03T05:27:33.114Z,28.25
2022-08-03T05:30:32.321Z,22.75
2022-08-03T05:32:48.709Z,20.75
2022-08-03T05:36:02.595Z,22.67
2022-08-03T05:38:04.543Z,23.25
2022-08-03T05:40:33.711Z,26.00
2022-08-03T05:43:01.917Z,24.50
2022-08-03T05:45:29.726Z,18.50
2022-08-03T05:47:57.480Z,20.00
2022-08-03T05:50:25.259Z,20.50
2022-08-03T05:52:57.675Z,19.75
2022-08-03T05:55:26.217Z,23.50
2022-08-03T05:57:56.712Z,18.25
2022-08-03T06:00:25.717Z,23.00
2022-08-03T06:02:53.683Z,21.50
2022-08-03T06:05:21.573Z,18.50
2022-08-03T06:07:49.403Z,18.00
2022-08-03T06:10:36.726Z,17.25
2022-08-03T06:13:05.483Z,20.50
2022-08-03T06:15:35.515Z,19.00
2022-08-03T06:18:03.471Z,19.25
2022-08-03T06:20:31.281Z,23.25
2022-08-03T06:23:01.278Z,24.25
2022-08-03T06:25:29.528Z,17.25
2022-08-03T06:27:57.312Z,17.50
2022-08-03T06:30:25.761Z,19.75
2022-08-03T06:32:53.584Z,20.25
2022-08-03T06:35:21.478Z,17.75
2022-08-03T06:37:50.747Z,19.00
2022-08-03T06:40:24.456Z,17.50
2022-08-03T06:42:52.551Z,20.33
2022-08-03T06:45:20.401Z,19.00
2022-08-03T06:47:48.343Z,15.50
2022-08-03T06:50:17.816Z,13.25
2022-08-03T06:52:46.410Z,23.00
2022-08-03T06:55:14.166Z,16.25
2022-08-03T06:57:42.027Z,20.50
2022-08-03T07:00:12.720Z,24.25
2022-08-03T07:02:41.561Z,19.00
2022-08-03T07:05:10.733Z,18.00
2022-08-03T07:07:38.563Z,18.25
2022-08-03T07:10:07.401Z,15.25
2022-08-03T07:12:35.876Z,18.50
2022-08-03T07:15:05.521Z,15.75
2022-08-03T07:17:35.394Z,19.75
2022-08-03T07:20:06.797Z,19.50
2022-08-03T07:22:35.599Z,15.00
2022-08-03T07:25:05.304Z,15.50
2022-08-03T07:27:33.902Z,18.00
2022-08-03T07:30:01.978Z,19.00
2022-08-03T07:32:31.790Z,15.25
2022-08-03T07:35:01.121Z,19.00
2022-08-03T07:37:30.466Z,18.33
2022-08-03T07:39:58.849Z,16.25
2022-08-03T07:42:29.067Z,18.00
2022-08-03T07:44:58.043Z,16.00
2022-08-03T07:47:34.921Z,17.25
2022-08-03T07:50:06.203Z,15.50
2022-08-03T07:52:49.754Z,19.00
2022-08-03T07:55:20.799Z,12.00
2022-08-03T07:58:02.976Z,17.25
2022-08-03T08:00:31.372Z,19.25
2022-08-03T08:02:59.181Z,17.25
2022-08-03T08:05:28.137Z,22.25
2022-08-03T08:07:55.928Z,22.50
2022-08-03T08:10:23.929Z,20.75
2022-08-03T08:12:51.854Z,11.50
2022-08-03T08:15:19.849Z,17.00
2022-08-03T08:17:50.188Z,16.00
2022-08-03T08:20:27.898Z,18.50
2022-08-03T08:22:58.262Z,16.25
2022-08-03T08:25:30.358Z,19.00
2022-08-03T08:28:29.064Z,19.00
2022-08-03T08:30:50.098Z,14.50
2022-08-03T08:33:23.018Z,15.00
2022-08-03T08:35:53.568Z,17.00
2022-08-03T08:38:22.378Z,20.75
2022-08-03T08:40:50.895Z,16.00
2022-08-03T08:43:18.864Z,18.00
2022-08-03T08:45:51.048Z,16.75
2022-08-03T08:48:23.694Z,17.25
2022-08-03T08:50:56.167Z,17.25
2022-08-03T08:53:28.918Z,15.00
2022-08-03T08:56:03.283Z,19.25
2022-08-03T08:58:35.483Z,19.00
2022-08-03T09:01:04.243Z,18.50
2022-08-03T09:03:34.342Z,16.75
2022-08-03T09:06:02.966Z,18.50
2022-08-03T09:08:32.677Z,17.00
2022-08-03T09:11:00.887Z,17.00
2022-08-03T09:13:29.468Z,15.25
2022-08-03T09:16:16.254Z,16.50
2022-08-03T09:18:49.261Z,14.25
2022-08-03T09:21:33.942Z,16.50
2022-08-03T09:24:12.985Z,15.00
2022-08-03T09:26:50.495Z,18.00
2022-08-03T09:29:20.915Z,13.33
2022-08-03T09:31:48.657Z,20.25
2022-08-03T09:34:17.681Z,14.50
2022-08-03T09:36:46.844Z,16.50
2022-08-03T09:39:17.536Z,10.50
2022-08-03T09:41:48.696Z,11.25
2022-08-03T09:44:25.816Z,12.50
2022-08-03T09:46:58.080Z,10.25
2022-08-03T09:49:26.019Z,14.50
2022-08-03T09:52:33.145Z,11.00
2022-08-03T09:54:43.515Z,15.00
2022-08-03T09:57:22.853Z,11.50
2022-08-03T09:59:55.003Z,16.00
2022-08-03T10:02:33.088Z,10.75
2022-08-03T10:05:01.058Z,15.50
2022-08-03T10:07:28.943Z,10.50
2022-08-03T10:10:29.133Z,15.25
2022-08-03T10:12:50.894Z,14.00
2022-08-03T10:16:23.005Z,15.75
2022-08-03T10:18:06.898Z,8.50
2022-08-03T10:20:50.635Z,8.50
2022-08-03T10:23:19.853Z,10.50
2022-08-03T10:25:49.936Z,11.50
2022-08-03T10:28:20.109Z,9.50
2022-08-03T10:30:50.477Z,10.00
2022-08-03T10:33:51.764Z,10.50
2022-08-03T10:36:13.863Z,10.50
2022-08-03T10:38:47.978Z,10.50
2022-08-03T10:41:22.956Z,11.25
2022-08-03T10:43:55.206Z,9.67
2022-08-03T10:46:23.281Z,10.25
2022-08-03T10:48:52.899Z,7.25
2022-08-03T10:51:21.070Z,9.25
2022-08-03T10:53:55.541Z,9.00
2022-08-03T10:56:51.994Z,9.25
2022-08-03T10:59:22.987Z,9.25
2022-08-03T11:01:59.822Z,8.50
2022-08-03T11:04:30.514Z,8.75
2022-08-03T11:07:17.473Z,8.75
2022-08-03T11:09:48.608Z,7.00
2022-08-03T11:12:22.206Z,11.00
2022-08-03T11:15:06.457Z,9.75
2022-08-03T11:17:46.338Z,10.50
2022-08-03T11:20:48.706Z,9.75
2022-08-03T11:23:19.718Z,9.33
2022-08-03T11:26:11.467Z,8.00
2022-08-03T11:28:40.170Z,6.00
2022-08-03T11:31:48.195Z,7.25
2022-08-03T11:34:13.006Z,8.50
2022-08-03T11:37:18.363Z,10.75
2022-08-03T11:39:47.715Z,10.25
2022-08-03T11:42:25.012Z,9.75
2022-08-03T11:44:54.970Z,6.75
2022-08-03T11:47:24.455Z,8.25
2022-08-03T11:49:56.015Z,8.75
2022-08-03T11:52:27.298Z,9.50
2022-08-03T11:54:56.562Z,10.50
2022-08-03T11:59:16.399Z,7.25
2022-08-03T12:00:20.894Z,10.25
2022-08-03T12:02:58.304Z,5.25
2022-08-03T12:05:42.323Z,7.00
2022-08-03T12:08:32.615Z,7.00
2022-08-03T12:11:04.637Z,8.50
2022-08-03T12:14:45.162Z,10.00
2022-08-03T12:16:32.120Z,8.00
2022-08-03T12:19:05.140Z,10.25
2022-08-03T12:21:33.129Z,9.75
2022-08-03T12:24:03.638Z,8.25
2022-08-03T12:26:58.179Z,9.75
2022-08-03T12:29:30.341Z,6.00
2022-08-03T12:31:58.247Z,6.50
2022-08-03T12:34:47.387Z,9.00
2022-08-03T12:37:22.462Z,7.75
2022-08-03T12:40:02.195Z,10.00
2022-08-03T12:42:35.473Z,8.25
2022-08-03T12:45:26.201Z,7.67
2022-08-03T12:47:54.706Z,6.00
2022-08-03T12:50:32.511Z,5.50
2022-08-03T12:53:03.467Z,11.50
2022-08-03T12:56:04.229Z,6.00
2022-08-03T12:58:50.567Z,6.50
2022-08-03T13:01:18.650Z,6.75
2022-08-03T13:03:50.162Z,7.50
2022-08-03T13:06:25.389Z,5.00
2022-08-03T13:09:07.216Z,10.00
2022-08-03T13:11:55.383Z,6.75
2022-08-03T13:14:23.703Z,9.00
2022-08-03T13:16:51.615Z,9.75
2022-08-03T13:19:19.433Z,8.25
2022-08-03T13:21:53.783Z,8.00
2022-08-03T13:24:33.743Z,6.50
2022-08-03T13:28:02.086Z,8.67
2022-08-03T13:29:51.279Z,5.00
2022-08-03T13:32:19.704Z,9.00
2022-08-03T13:34:47.714Z,4.25
2022-08-03T13:37:16.438Z,10.50
2022-08-03T13:39:57.725Z,4.50
2022-08-03T13:42:29.841Z,5.25
2022-08-03T13:44:58.167Z,6.00
2022-08-03T13:47:26.817Z,6.50
2022-08-03T13:50:01.090Z,7.50
2022-08-03T13:52:31.837Z,9.25
2022-08-03T13:55:00.300Z,12.50
2022-08-03T13:58:02.669Z,20.00
2022-08-03T14:00:27.093Z,24.25
2022-08-03T14:03:16.409Z,31.25
2022-08-03T14:05:44.390Z,25.50
2022-08-03T14:08:12.573Z,24.50
2022-08-03T14:10:43.189Z,26.00
2022-08-03T14:13:17.919Z,22.50
2022-08-03T14:15:51.044Z,22.50
2022-08-03T14:18:27.673Z,19.25
2022-08-03T14:21:01.946Z,18.50
2022-08-03T14:23:32.990Z,23.00
2022-08-03T14:26:01.139Z,19.00
2022-08-03T14:28:28.882Z,14.25
2022-08-03T14:30:56.631Z,21.00
2022-08-03T14:33:25.649Z,16.75
2022-08-03T14:35:53.750Z,14.00
2022-08-03T14:38:22.162Z,20.00
2022-08-03T14:40:51.382Z,13.00
2022-08-03T14:43:21.421Z,13.00
2022-08-03T14:45:53.808Z,12.50
2022-08-03T14:50:29.227Z,17.75
2022-08-03T14:51:10.543Z,15.00
2022-08-03T14:53:38.385Z,15.25
2022-08-03T14:56:10.196Z,18.25
2022-08-03T14:58:38.636Z,12.50
2022-08-03T15:02:02.977Z,14.00
2022-08-03T15:03:55.677Z,15.75
2022-08-03T15:06:24.430Z,11.50
2022-08-03T15:09:13.826Z,11.75
2022-08-03T15:11:40.146Z,15.25
2022-08-03T15:14:09.500Z,11.00
2022-08-03T15:16:38.738Z,10.75
2022-08-03T15:20:03.680Z,16.00
2022-08-03T15:24:45.476Z,12.75
2022-08-03T15:27:13.286Z,12.25
2022-08-03T15:30:06.954Z,9.75
2022-08-03T15:32:28.927Z,12.67
2022-08-03T15:34:57.508Z,9.25
2022-08-03T15:37:25.932Z,8.25
2022-08-03T15:39:59.203Z,9.25
2022-08-03T15:42:29.751Z,10.33
2022-08-03T15:44:57.465Z,9.50
2022-08-03T15:47:25.550Z,16.25
2022-08-03T15:49:53.263Z,12.75
2022-08-03T15:52:21.306Z,21.00
2022-08-03T15:54:49.466Z,17.25
2022-08-03T15:57:17.326Z,18.50
2022-08-03T15:59:45.197Z,11.50
2022-08-03T16:02:13.380Z,15.75
2022-08-03T16:04:41.441Z,12.00
2022-08-03T16:07:12.569Z,12.50
2022-08-03T16:09:42.379Z,12.33
2022-08-03T16:12:15.818Z,10.75
2022-08-03T16:14:53.849Z,15.33
2022-08-03T16:17:23.592Z,17.75
2022-08-03T16:19:54.726Z,13.33
2022-08-03T16:22:26.716Z,18.00
2022-08-03T16:24:54.960Z,12.75
2022-08-03T16:27:37.019Z,15.50
2022-08-03T16:30:12.874Z,12.00
2022-08-03T16:32:40.651Z,13.25
2022-08-03T16:35:09.066Z,11.50
2022-08-03T16:37:54.610Z,10.25
2022-08-03T16:40:25.402Z,12.25
2022-08-03T16:42:53.336Z,11.75
2022-08-03T16:45:21.247Z,8.50
2022-08-03T16:47:49.070Z,11.75
2022-08-03T16:50:34.279Z,11.75
2022-08-03T16:53:09.028Z,12.25
2022-08-03T16:55:43.368Z,8.00
2022-08-03T16:58:34.233Z,12.75
2022-08-03T17:01:22.350Z,13.50
2022-08-03T17:04:03.144Z,12.75
2022-08-03T17:06:35.279Z,8.75
2022-08-03T17:09:09.174Z,7.25
2022-08-03T17:11:43.850Z,9.25
2022-08-03T17:14:29.378Z,9.25
2022-08-03T17:17:01.657Z,8.25
2022-08-03T17:19:32.402Z,8.75
2022-08-03T17:22:04.886Z,7.00
2022-08-03T17:24:41.426Z,9.75
2022-08-03T17:28:41.743Z,6.25
2022-08-03T17:30:08.001Z,10.50
2022-08-03T17:32:42.735Z,9.25
2022-08-03T17:35:21.485Z,10.25
2022-08-03T17:37:58.446Z,7.50
2022-08-03T17:40:32.042Z,8.25
2022-08-03T17:43:00.683Z,7.50
2022-08-03T17:45:52.266Z,8.75
2022-08-03T17:48:18.686Z,7.50
2022-08-03T17:50:54.330Z,6.00
2022-08-03T17:53:31.193Z,8.25
2022-08-03T17:56:04.246Z,7.50
2022-08-03T17:58:39.678Z,9.25
2022-08-03T18:02:01.956Z,7.25
2022-08-03T18:04:29.905Z,6.25
2022-08-03T18:07:00.474Z,7.75
2022-08-03T18:10:03.698Z,13.00
2022-08-03T18:12:37.339Z,4.75
2022-08-03T18:15:08.690Z,9.00
2022-08-03T18:17:55.720Z,10.00
2022-08-03T18:20:41.208Z,5.50
2022-08-03T18:23:24.909Z,7.25
2022-08-03T18:26:02.384Z,5.75
2022-08-03T18:28:35.823Z,7.25
2022-08-03T18:31:05.754Z,7.75
2022-08-03T18:34:19.022Z,7.25
2022-08-03T18:36:29.991Z,5.25
2022-08-03T18:39:03.145Z,9.50
2022-08-03T18:41:34.693Z,11.25
2022-08-03T18:44:08.185Z,10.75
2022-08-03T18:46:41.075Z,9.25
2022-08-03T18:49:30.662Z,8.25
2022-08-03T18:52:12.162Z,8.00
2022-08-03T18:55:01.213Z,9.25
2022-08-03T18:57:46.549Z,8.00
2022-08-03T19:00:16.683Z,8.75
2022-08-03T19:02:56.586Z,8.50
2022-08-03T19:05:56.211Z,7.75
2022-08-03T19:08:20.367Z,10.00
2022-08-03T19:10:57.936Z,8.00
2022-08-03T19:13:50.381Z,9.25
2022-08-03T19:16:35.411Z,6.50
2022-08-03T19:19:10.368Z,11.75
2022-08-03T19:21:44.637Z,9.75
2022-08-03T19:24:14.163Z,9.75
2022-08-03T19:26:43.608Z,14.25
2022-08-03T19:29:17.700Z,11.25
2022-08-03T19:31:58.905Z,13.00
2022-08-03T19:34:30.835Z,14.00
2022-08-03T19:36:59.344Z,8.50
2022-08-03T19:39:27.589Z,14.25
2022-08-03T19:41:58.841Z,12.25
2022-08-03T19:44:40.928Z,10.25
2022-08-03T19:47:16.907Z,9.00
2022-08-03T19:50:14.293Z,11.25
2022-08-03T19:53:03.582Z,11.00
2022-08-03T19:55:34.306Z,10.25
2022-08-03T19:58:04.571Z,9.25
2022-08-03T20:00:36.743Z,8.50
2022-08-03T20:03:19.716Z,16.50
2022-08-03T20:05:51.999Z,10.75
2022-08-03T20:08:22.183Z,11.00
2022-08-03T20:10:51.222Z,13.25
2022-08-03T20:13:19.747Z,13.25
2022-08-03T20:15:47.680Z,17.25
2022-08-03T20:18:21.272Z,17.50
2022-08-03T20:20:52.775Z,18.50
2022-08-03T20:23:22.727Z,19.50
2022-08-03T20:25:57.321Z,17.50
2022-08-03T20:28:32.729Z,13.25
2022-08-03T20:31:02.156Z,16.75
2022-08-03T20:33:46.303Z,15.50
2022-08-03T20:36:18.580Z,17.00
2022-08-03T20:38:48.017Z,16.50
2022-08-03T20:41:17.206Z,15.00
2022-08-03T20:43:46.377Z,9.00
2022-08-03T20:46:32.035Z,9.00
2022-08-03T20:49:06.783Z,7.00
2022-08-03T20:51:50.697Z,14.00
2022-08-03T20:54:31.122Z,14.50
2022-08-03T20:57:13.872Z,15.75
2022-08-03T20:59:50.876Z,9.50
2022-08-03T21:02:29.705Z,15.25
2022-08-03T21:05:09.150Z,8.75
2022-08-03T21:08:06.014Z,9.67
2022-08-03T21:10:40.719Z,8.25
2022-08-03T21:13:34.004Z,6.00
2022-08-03T21:16:13.412Z,11.25
2022-08-03T21:18:49.304Z,8.00
2022-08-03T21:21:19.289Z,10.75
2022-08-03T21:23:54.786Z,9.67
2022-08-03T21:26:24.941Z,9.50
2022-08-03T21:28:55.127Z,10.75
2022-08-03T21:31:25.390Z,11.50
2022-08-03T21:33:57.394Z,10.25
2022-08-03T21:36:30.075Z,6.50
2022-08-03T21:38:59.184Z,9.25
2022-08-03T21:41:29.447Z,10.33
2022-08-03T21:43:58.196Z,9.50
2022-08-03T21:46:27.891Z,8.00
2022-08-03T21:50:07.081Z,10.00
2022-08-03T21:51:49.479Z,11.25
2022-08-03T21:54:20.369Z,12.25
2022-08-03T21:56:48.630Z,16.25
2022-08-03T21:59:18.717Z,12.25
2022-08-03T22:01:48.821Z,15.00
2022-08-03T22:04:50.445Z,11.75
2022-08-03T22:07:10.603Z,9.50
2022-08-03T22:09:38.401Z,11.00
2022-08-03T22:12:06.613Z,10.50
2022-08-03T22:14:34.350Z,16.00
2022-08-03T22:17:55.517Z,11.00
2022-08-03T22:20:15.817Z,13.75
2022-08-03T22:22:55.270Z,12.33
2022-08-03T22:25:31.751Z,13.25
2022-08-03T22:28:02.528Z,12.50
2022-08-03T22:30:31.763Z,18.75
2022-08-03T22:33:00.432Z,16.75
2022-08-03T22:35:28.404Z,20.25
2022-08-03T22:37:58.533Z,18.25
2022-08-03T22:40:27.878Z,14.00
2022-08-03T22:42:57.013Z,15.00
2022-08-03T22:46:06.206Z,14.67
2022-08-03T22:48:14.027Z,17.25
2022-08-03T22:50:44.123Z,11.33
2022-08-03T22:53:17.538Z,13.75
2022-08-03T22:55:49.644Z,12.75
2022-08-03T22:58:18.610Z,11.00
2022-08-03T23:00:58.657Z,12.25
2022-08-03T23:04:00.415Z,15.00
2022-08-03T23:06:21.922Z,9.00
2022-08-03T23:08:50.569Z,10.00
2022-08-03T23:11:21.067Z,11.00
2022-08-03T23:13:53.262Z,9.50
2022-08-03T23:16:28.577Z,10.25
2022-08-03T23:18:59.706Z,5.25
2022-08-03T23:21:53.466Z,9.75
2022-08-03T23:24:25.261Z,13.50
2022-08-03T23:26:59.262Z,8.00
2022-08-03T23:29:29.618Z,9.75
2022-08-03T23:31:58.171Z,7.75
2022-08-03T23:34:44.918Z,6.50
2022-08-03T23:37:17.196Z,6.25
2022-08-03T23:39:46.968Z,9.75
2022-08-03T23:42:17.567Z,8.75
2022-08-03T23:44:46.393Z,6.25
2022-08-03T23:47:14.391Z,9.00
2022-08-03T23:49:42.328Z,11.67
2022-08-03T23:52:21.985Z,7.67
2022-08-03T23:55:11.574Z,11.75
2022-08-03T23:58:10.777Z,6.00
